Helsinki, Finland

12:45 AM EEST op 01 september 2015 (GMT +0300)
Vantaa | | Change Station
CLOSE
Current Station
Luchthaven
Location: Helsinki,
Geometrische hoogte: 184 ft
Nabije weerstations

Hoogte 184 ft 60.32 °N, 24.96 °E | Updated 25 minutes ago

Clear
Helder
52 °F
Voelt als 52 °F
N
2
Wind Variabel Wind van ZZW

Vandaag
Hoog -- | Laag -- °F
--% Kans op neerslag
Gisteren
Hoog -- | Laag -- °F
Precip. -- inches
6:13 AM 8:25 PM
Afnemende maan, 93% visible
Druk 30.01 inches
Zicht -9999.0 mijlen
Wolken
Dauwpunt 52 °F
Vochtigheid 100%
Neerslag 0.00 inches
Dikte sneeuw Niet beschikbaar.
UV Niet beschikbaar.
Pollen Niet beschikbaar.
Luchtkwaliteit Niet beschikbaar.
Flu Activity Niet beschikbaar.
METAR EFHK 312120Z 21002KT CAVOK 11/11 Q1016 NOSIG
Druk 30.01 inches
Zicht -9999.0 mijlen
Wolken
Dauwpunt 52 °F
Vochtigheid 100%
Neerslag 0.00 inches
Dikte sneeuw Niet beschikbaar.
UV Niet beschikbaar.
Pollen Niet beschikbaar.
Luchtkwaliteit Niet beschikbaar.
Flu Activity Niet beschikbaar.
METAR EFHK 312120Z 21002KT CAVOK 11/11 Q1016 NOSIG

10-Day Weather Forecast

×

Almanac

Astronomie

Sep. 01, 2015 Opkomst Ondergang
Werkelijke tijd
Burgerlijke schemering
Nautische schemering
Astronomische schemering
Maan
Golflengte van het zichtbare licht
Daglengte
Tomorrow will be .
, % of the Moon is Illuminated

Extremen vandaag

Country Highs Country Lows

Community

WunderPhotos

Upload Photos

1,851,377 foto’s ge-upload!

WunderBlogs® & News

Nearby

Luchtkwaliteit

  Luchtkwaliteit LK-index Verontreinigende stof
Not available.

Dikte sneeuw

Station Depth Geometrische hoogte

Aardbevingen

Stad Distance Mag. Time & Date
Minimum magnitude displayed is 2.5.

Watertemperatuur langs de kust

Plaats Temperatuur

Stations

Nabije weerstations

Locatie station Temp. Gevoelstemperatuur Dauwpunt Vochtigheid Wind Precip. Hoogte Geactualiseerd Type